Don's Testing Zone


Current Conditions
weather data
source:

National Weather Service
Clear Hot Springs, AR
Clear, 79°F
Sunday, May 20, 2018 8:53 AM CDT
Temperature: 79°F/26°C
Humidity: 79%
Barometer: 30.07in/1017.4mb Barometer Steady
Wind: W at 6mph/9kmh
View other cities:
Searcy | Little Rock | Hot Springs | Russellville | More...
Astronomical Conditions (Clear Sky Clock)
Searcy Clear Sky Clock
Find more weather in Little Rock, AR
    

Radar Images

NWS
    Wx Underground

KARK
   

Solar-Terrestrial Data

NWS METAR weather data

ADDS - METARS form results





Aviation Digital Data Service (ADDS) Output produced by METARs form (1355 UTC 20 May 2018) found at http://aviationweather.gov/adds/metars/ 

KHOT 201353Z AUTO 26005KT 10SM CLR 26/22 A3007 RMK AO2 SLP174 T02560217

KHOT 201253Z AUTO 00000KT 10SM CLR 26/22 A3005 RMK AO2 SLP169 T02560217

KHOT 201153Z AUTO 00000KT 10SM CLR 25/21 A3003 RMK AO2 SLP159 T02500211 1026120239 53006

KHOT 201053Z AUTO 24003KT 10SM BKN050 25/21 A3002 RMK AO2 SLP157 T02500206

KHOT 200953Z AUTO 22005KT 10SM CLR 26/21 A3001 RMK AO2 SLP154 T02560211

KHOT 200853Z AUTO 12003KT 10SM FEW060 24/21 A3001 RMK AO2 SLP153 T02440211 53008

KHOT 200753Z AUTO 12003KT 10SM CLR 24/22 A3000 RMK AO2 SLP150 T02440217

KHOT 200653Z AUTO 11004KT 10SM CLR 25/22 A2999 RMK AO2 SLP146 T02500217

KHOT 200553Z AUTO 05003KT 10SM CLR 24/22 A2998 RMK AO2 SLP145 T02390217 1031120239 403220211 50004

KHOT 200453Z AUTO 07005KT 10SM CLR 25/22 A2998 RMK AO2 SLP145 T02500222

KHOT 200353Z AUTO 10003KT 10SM CLR 26/22 A2999 RMK AO2 SLP147 T02610222

KHOT 200253Z AUTO 07005KT 10SM CLR 26/22 A2997 RMK AO2 SLP142 T02610217 51023

KHOT 200153Z AUTO 07003KT 10SM CLR 27/22 A2996 RMK AO2 SLP137 T02720217

KHOT 200053Z AUTO 00000KT 10SM SCT050 30/21 A2993 RMK AO2 SLP129 T03000211

KHOT 192353Z AUTO 18005KT 10SM CLR 31/21 A2990 RMK AO2 SLP118 T03110211 1032220306 55000

KHOT 192253Z AUTO 18006KT 10SM CLR 32/21 A2988 RMK AO2 SLP113 T03170211

KHOT 192153Z AUTO 19009KT 10SM CLR 32/21 A2989 RMK AO2 SLP114 T03220206

KHOT 192053Z AUTO 20009KT 10SM CLR 32/20 A2990 RMK AO2 SLP119 T03220200 58013

KHOT 191953Z AUTO 19007KT 10SM CLR 32/19 A2992 RMK AO2 SLP123 T03170194

KHOT 191853Z AUTO 24008KT 10SM CLR 32/19 A2993 RMK AO2 SLP127 T03170194

KHOT 191753Z AUTO 17006KT 10SM CLR 31/21 A2994 RMK AO2 SLP130 T03110206 1031120222 53002

KHOT 191653Z AUTO 18006KT 10SM CLR 31/21 A2993 RMK AO2 SLP129 T03060206

KHOT 191553Z AUTO VRB03KT 10SM CLR 29/20 A2993 RMK AO2 SLP129 T02940200

KHOT 191453Z AUTO 19006KT 10SM CLR 28/21 A2993 RMK AO2 SLP129 T02780211 51019